sensor_id;sensor_type;location;lat;lon;timestamp;temperature;humidity
68578;SHT31;61668;45.388;11.784;2023-04-24T00:00:56;15.58;80.40
68578;SHT31;61668;45.388;11.784;2023-04-24T00:03:22;15.57;80.41
68578;SHT31;61668;45.388;11.784;2023-04-24T00:05:49;15.56;80.51
68578;SHT31;61668;45.388;11.784;2023-04-24T00:08:16;15.53;80.60
68578;SHT31;61668;45.388;11.784;2023-04-24T00:10:42;15.53;80.62
68578;SHT31;61668;45.388;11.784;2023-04-24T00:13:08;15.53;80.70
68578;SHT31;61668;45.388;11.784;2023-04-24T00:15:34;15.52;80.72
68578;SHT31;61668;45.388;11.784;2023-04-24T00:18:00;15.52;80.72
68578;SHT31;61668;45.388;11.784;2023-04-24T00:20:28;15.51;80.73
68578;SHT31;61668;45.388;11.784;2023-04-24T00:22:54;15.50;80.86
68578;SHT31;61668;45.388;11.784;2023-04-24T00:25:21;15.48;80.93
68578;SHT31;61668;45.388;11.784;2023-04-24T00:27:47;15.47;80.95
68578;SHT31;61668;45.388;11.784;2023-04-24T00:30:12;15.47;81.00
68578;SHT31;61668;45.388;11.784;2023-04-24T00:32:38;15.45;81.02
68578;SHT31;61668;45.388;11.784;2023-04-24T00:35:05;15.44;81.05
68578;SHT31;61668;45.388;11.784;2023-04-24T00:37:32;15.42;81.13
68578;SHT31;61668;45.388;11.784;2023-04-24T00:39:57;15.39;81.21
68578;SHT31;61668;45.388;11.784;2023-04-24T00:42:23;15.37;81.31
68578;SHT31;61668;45.388;11.784;2023-04-24T00:44:50;15.35;81.49
68578;SHT31;61668;45.388;11.784;2023-04-24T00:47:16;15.33;81.48
68578;SHT31;61668;45.388;11.784;2023-04-24T00:49:45;15.32;81.47
68578;SHT31;61668;45.388;11.784;2023-04-24T00:52:10;15.31;81.54
68578;SHT31;61668;45.388;11.784;2023-04-24T00:54:37;15.29;81.63
68578;SHT31;61668;45.388;11.784;2023-04-24T00:57:03;15.28;81.71
68578;SHT31;61668;45.388;11.784;2023-04-24T00:59:29;15.25;81.73
68578;SHT31;61668;45.388;11.784;2023-04-24T01:01:56;15.23;81.80
68578;SHT31;61668;45.388;11.784;2023-04-24T01:04:23;15.20;81.82
68578;SHT31;61668;45.388;11.784;2023-04-24T01:06:51;15.17;81.91
68578;SHT31;61668;45.388;11.784;2023-04-24T01:09:17;15.14;82.03
68578;SHT31;61668;45.388;11.784;2023-04-24T01:11:44;15.10;82.12
68578;SHT31;61668;45.388;11.784;2023-04-24T01:14:10;15.07;82.10
68578;SHT31;61668;45.388;11.784;2023-04-24T01:16:35;15.05;82.20
68578;SHT31;61668;45.388;11.784;2023-04-24T01:19:03;15.03;82.30
68578;SHT31;61668;45.388;11.784;2023-04-24T01:21:31;15.00;82.39
68578;SHT31;61668;45.388;11.784;2023-04-24T01:24:01;14.98;82.48
68578;SHT31;61668;45.388;11.784;2023-04-24T01:26:29;14.96;82.43
68578;SHT31;61668;45.388;11.784;2023-04-24T01:28:55;14.95;82.38
68578;SHT31;61668;45.388;11.784;2023-04-24T01:31:22;14.93;82.31
68578;SHT31;61668;45.388;11.784;2023-04-24T01:33:49;14.92;82.22
68578;SHT31;61668;45.388;11.784;2023-04-24T01:36:16;14.93;82.20
68578;SHT31;61668;45.388;11.784;2023-04-24T01:38:42;14.90;82.20
68578;SHT31;61668;45.388;11.784;2023-04-24T01:41:08;14.90;82.21
68578;SHT31;61668;45.388;11.784;2023-04-24T01:43:33;14.89;82.21
68578;SHT31;61668;45.388;11.784;2023-04-24T01:45:59;14.88;82.12
68578;SHT31;61668;45.388;11.784;2023-04-24T01:48:25;14.86;82.10
68578;SHT31;61668;45.388;11.784;2023-04-24T01:50:51;14.84;81.99
68578;SHT31;61668;45.388;11.784;2023-04-24T01:53:16;14.83;81.89
68578;SHT31;61668;45.388;11.784;2023-04-24T01:55:42;14.81;81.75
68578;SHT31;61668;45.388;11.784;2023-04-24T01:58:08;14.79;81.68
68578;SHT31;61668;45.388;11.784;2023-04-24T02:00:34;14.79;81.60
68578;SHT31;61668;45.388;11.784;2023-04-24T02:03:00;14.76;81.50
68578;SHT31;61668;45.388;11.784;2023-04-24T02:05:27;14.74;81.40
68578;SHT31;61668;45.388;11.784;2023-04-24T02:07:53;14.72;81.30
68578;SHT31;61668;45.388;11.784;2023-04-24T02:10:19;14.70;81.23
68578;SHT31;61668;45.388;11.784;2023-04-24T02:12:44;14.69;81.15
68578;SHT31;61668;45.388;11.784;2023-04-24T02:15:10;14.68;81.10
68578;SHT31;61668;45.388;11.784;2023-04-24T02:17:37;14.67;81.09
68578;SHT31;61668;45.388;11.784;2023-04-24T02:20:04;14.66;81.05
68578;SHT31;61668;45.388;11.784;2023-04-24T02:22:31;14.65;81.04
68578;SHT31;61668;45.388;11.784;2023-04-24T02:24:57;14.65;81.02
68578;SHT31;61668;45.388;11.784;2023-04-24T02:27:23;14.64;81.00
68578;SHT31;61668;45.388;11.784;2023-04-24T02:29:48;14.64;80.91
68578;SHT31;61668;45.388;11.784;2023-04-24T02:32:14;14.65;80.89
68578;SHT31;61668;45.388;11.784;2023-04-24T02:34:40;14.65;80.88
68578;SHT31;61668;45.388;11.784;2023-04-24T02:37:06;14.65;80.80
68578;SHT31;61668;45.388;11.784;2023-04-24T02:39:32;14.64;80.77
68578;SHT31;61668;45.388;11.784;2023-04-24T02:41:57;14.65;80.73
68578;SHT31;61668;45.388;11.784;2023-04-24T02:44:23;14.64;80.73
68578;SHT31;61668;45.388;11.784;2023-04-24T02:46:49;14.65;80.74
68578;SHT31;61668;45.388;11.784;2023-04-24T02:49:14;14.64;80.69
68578;SHT31;61668;45.388;11.784;2023-04-24T02:51:40;14.65;80.69
68578;SHT31;61668;45.388;11.784;2023-04-24T02:54:07;14.65;80.68
68578;SHT31;61668;45.388;11.784;2023-04-24T02:56:34;14.65;80.60
68578;SHT31;61668;45.388;11.784;2023-04-24T02:59:00;14.65;80.60
68578;SHT31;61668;45.388;11.784;2023-04-24T03:01:26;14.64;80.59
68578;SHT31;61668;45.388;11.784;2023-04-24T03:03:52;14.63;80.60
68578;SHT31;61668;45.388;11.784;2023-04-24T03:06:18;14.64;80.60
68578;SHT31;61668;45.388;11.784;2023-04-24T03:08:43;14.63;80.60
68578;SHT31;61668;45.388;11.784;2023-04-24T03:11:09;14.61;80.66
68578;SHT31;61668;45.388;11.784;2023-04-24T03:13:34;14.60;80.65
68578;SHT31;61668;45.388;11.784;2023-04-24T03:16:00;14.60;80.63
68578;SHT31;61668;45.388;11.784;2023-04-24T03:18:26;14.58;80.62
68578;SHT31;61668;45.388;11.784;2023-04-24T03:20:52;14.59;80.65
68578;SHT31;61668;45.388;11.784;2023-04-24T03:23:18;14.59;80.79
68578;SHT31;61668;45.388;11.784;2023-04-24T03:25:44;14.58;80.81
68578;SHT31;61668;45.388;11.784;2023-04-24T03:28:10;14.58;80.90
68578;SHT31;61668;45.388;11.784;2023-04-24T03:30:36;14.59;80.96
68578;SHT31;61668;45.388;11.784;2023-04-24T03:33:01;14.59;81.03
68578;SHT31;61668;45.388;11.784;2023-04-24T03:35:27;14.59;81.01
68578;SHT31;61668;45.388;11.784;2023-04-24T03:37:53;14.58;81.07
68578;SHT31;61668;45.388;11.784;2023-04-24T03:40:18;14.57;81.19
68578;SHT31;61668;45.388;11.784;2023-04-24T03:42:44;14.56;81.20
68578;SHT31;61668;45.388;11.784;2023-04-24T03:45:10;14.55;81.14
68578;SHT31;61668;45.388;11.784;2023-04-24T03:47:35;14.55;81.11
68578;SHT31;61668;45.388;11.784;2023-04-24T03:50:01;14.55;81.14
68578;SHT31;61668;45.388;11.784;2023-04-24T03:52:28;14.54;81.13
68578;SHT31;61668;45.388;11.784;2023-04-24T03:54:53;14.54;81.10
68578;SHT31;61668;45.388;11.784;2023-04-24T03:57:20;14.55;81.10
68578;SHT31;61668;45.388;11.784;2023-04-24T03:59:46;14.55;81.11
68578;SHT31;61668;45.388;11.784;2023-04-24T04:02:12;14.56;81.10
68578;SHT31;61668;45.388;11.784;2023-04-24T04:04:38;14.56;81.14
68578;SHT31;61668;45.388;11.784;2023-04-24T04:07:03;14.57;81.26
68578;SHT31;61668;45.388;11.784;2023-04-24T04:09:30;14.57;81.51
68578;SHT31;61668;45.388;11.784;2023-04-24T04:11:57;14.58;81.60
68578;SHT31;61668;45.388;11.784;2023-04-24T04:14:23;14.59;81.74
68578;SHT31;61668;45.388;11.784;2023-04-24T04:16:49;14.59;81.85
68578;SHT31;61668;45.388;11.784;2023-04-24T04:19:14;14.58;82.00
68578;SHT31;61668;45.388;11.784;2023-04-24T04:21:40;14.59;82.12
68578;SHT31;61668;45.388;11.784;2023-04-24T04:24:06;14.59;82.34
68578;SHT31;61668;45.388;11.784;2023-04-24T04:26:32;14.57;82.50
68578;SHT31;61668;45.388;11.784;2023-04-24T04:28:58;14.55;82.50
68578;SHT31;61668;45.388;11.784;2023-04-24T04:31:28;14.53;82.59
68578;SHT31;61668;45.388;11.784;2023-04-24T04:33:55;14.51;82.73
68578;SHT31;61668;45.388;11.784;2023-04-24T04:36:21;14.49;82.87
68578;SHT31;61668;45.388;11.784;2023-04-24T04:38:49;14.48;82.99
68578;SHT31;61668;45.388;11.784;2023-04-24T04:41:15;14.48;83.08
68578;SHT31;61668;45.388;11.784;2023-04-24T04:43:42;14.46;83.32
68578;SHT31;61668;45.388;11.784;2023-04-24T04:46:07;14.44;83.40
68578;SHT31;61668;45.388;11.784;2023-04-24T04:48:35;14.44;83.52
68578;SHT31;61668;45.388;11.784;2023-04-24T04:51:01;14.42;83.53
68578;SHT31;61668;45.388;11.784;2023-04-24T04:53:27;14.42;83.66
68578;SHT31;61668;45.388;11.784;2023-04-24T04:55:52;14.42;83.63
68578;SHT31;61668;45.388;11.784;2023-04-24T04:58:18;14.42;83.68
68578;SHT31;61668;45.388;11.784;2023-04-24T05:00:44;14.43;83.70
68578;SHT31;61668;45.388;11.784;2023-04-24T05:03:09;14.44;83.69
68578;SHT31;61668;45.388;11.784;2023-04-24T05:05:35;14.43;83.69
68578;SHT31;61668;45.388;11.784;2023-04-24T05:08:05;14.44;83.71
68578;SHT31;61668;45.388;11.784;2023-04-24T05:10:34;14.44;83.64
68578;SHT31;61668;45.388;11.784;2023-04-24T05:13:02;14.45;83.67
68578;SHT31;61668;45.388;11.784;2023-04-24T05:15:29;14.44;83.92
68578;SHT31;61668;45.388;11.784;2023-04-24T05:17:55;14.44;84.05
68578;SHT31;61668;45.388;11.784;2023-04-24T05:20:21;14.43;84.14
68578;SHT31;61668;45.388;11.784;2023-04-24T05:22:47;14.42;84.26
68578;SHT31;61668;45.388;11.784;2023-04-24T05:25:13;14.40;84.32
68578;SHT31;61668;45.388;11.784;2023-04-24T05:27:38;14.39;84.39
68578;SHT31;61668;45.388;11.784;2023-04-24T05:30:04;14.38;84.47
68578;SHT31;61668;45.388;11.784;2023-04-24T05:32:31;14.38;84.50
68578;SHT31;61668;45.388;11.784;2023-04-24T05:34:57;14.38;84.49
68578;SHT31;61668;45.388;11.784;2023-04-24T05:37:22;14.39;84.50
68578;SHT31;61668;45.388;11.784;2023-04-24T05:39:48;14.41;84.50
68578;SHT31;61668;45.388;11.784;2023-04-24T05:42:14;14.42;84.59
68578;SHT31;61668;45.388;11.784;2023-04-24T05:44:39;14.43;84.63
68578;SHT31;61668;45.388;11.784;2023-04-24T05:47:05;14.43;84.71
68578;SHT31;61668;45.388;11.784;2023-04-24T05:49:31;14.46;84.83
68578;SHT31;61668;45.388;11.784;2023-04-24T05:51:57;14.46;84.88
68578;SHT31;61668;45.388;11.784;2023-04-24T05:54:22;14.49;84.82
68578;SHT31;61668;45.388;11.784;2023-04-24T05:56:49;14.51;84.82
68578;SHT31;61668;45.388;11.784;2023-04-24T05:59:15;14.54;84.85
68578;SHT31;61668;45.388;11.784;2023-04-24T06:01:41;14.56;84.84
68578;SHT31;61668;45.388;11.784;2023-04-24T06:04:07;14.57;84.91
68578;SHT31;61668;45.388;11.784;2023-04-24T06:06:34;14.60;84.93
68578;SHT31;61668;45.388;11.784;2023-04-24T06:09:00;14.63;84.93
68578;SHT31;61668;45.388;11.784;2023-04-24T06:11:26;14.65;84.83
68578;SHT31;61668;45.388;11.784;2023-04-24T06:13:51;14.65;84.72
68578;SHT31;61668;45.388;11.784;2023-04-24T06:16:17;14.64;84.78
68578;SHT31;61668;45.388;11.784;2023-04-24T06:18:43;14.63;84.77
68578;SHT31;61668;45.388;11.784;2023-04-24T06:21:09;14.62;84.77
68578;SHT31;61668;45.388;11.784;2023-04-24T06:23:34;14.61;84.73
68578;SHT31;61668;45.388;11.784;2023-04-24T06:26:00;14.61;84.73
68578;SHT31;61668;45.388;11.784;2023-04-24T06:28:26;14.62;84.70
68578;SHT31;61668;45.388;11.784;2023-04-24T06:30:51;14.63;84.51
68578;SHT31;61668;45.388;11.784;2023-04-24T06:33:17;14.65;84.39
68578;SHT31;61668;45.388;11.784;2023-04-24T06:35:43;14.69;84.24
68578;SHT31;61668;45.388;11.784;2023-04-24T06:38:09;14.73;83.87
68578;SHT31;61668;45.388;11.784;2023-04-24T06:40:34;14.74;83.51
68578;SHT31;61668;45.388;11.784;2023-04-24T06:43:00;14.74;83.68
68578;SHT31;61668;45.388;11.784;2023-04-24T06:45:28;14.73;84.06
68578;SHT31;61668;45.388;11.784;2023-04-24T06:47:55;14.68;84.33
68578;SHT31;61668;45.388;11.784;2023-04-24T06:50:21;14.64;84.22
68578;SHT31;61668;45.388;11.784;2023-04-24T06:52:47;14.60;84.04
68578;SHT31;61668;45.388;11.784;2023-04-24T06:55:13;14.55;84.07
68578;SHT31;61668;45.388;11.784;2023-04-24T06:57:40;14.52;84.11
68578;SHT31;61668;45.388;11.784;2023-04-24T07:00:06;14.50;84.01
68578;SHT31;61668;45.388;11.784;2023-04-24T07:02:34;14.50;84.09
68578;SHT31;61668;45.388;11.784;2023-04-24T07:05:00;14.49;84.18
68578;SHT31;61668;45.388;11.784;2023-04-24T07:07:26;14.49;84.23
68578;SHT31;61668;45.388;11.784;2023-04-24T07:09:52;14.51;84.09
68578;SHT31;61668;45.388;11.784;2023-04-24T07:12:19;14.52;84.08
68578;SHT31;61668;45.388;11.784;2023-04-24T07:14:46;14.49;84.04
68578;SHT31;61668;45.388;11.784;2023-04-24T07:17:13;14.48;84.02
68578;SHT31;61668;45.388;11.784;2023-04-24T07:19:39;14.46;84.02
68578;SHT31;61668;45.388;11.784;2023-04-24T07:22:05;14.47;83.73
68578;SHT31;61668;45.388;11.784;2023-04-24T07:24:31;14.51;83.76
68578;SHT31;61668;45.388;11.784;2023-04-24T07:26:57;14.53;83.18
68578;SHT31;61668;45.388;11.784;2023-04-24T07:29:24;14.54;82.58
68578;SHT31;61668;45.388;11.784;2023-04-24T07:31:50;14.55;82.03
68578;SHT31;61668;45.388;11.784;2023-04-24T07:34:17;14.54;81.67
68578;SHT31;61668;45.388;11.784;2023-04-24T07:36:42;14.54;81.52
68578;SHT31;61668;45.388;11.784;2023-04-24T07:39:08;14.57;81.46
68578;SHT31;61668;45.388;11.784;2023-04-24T07:41:34;14.59;81.36
68578;SHT31;61668;45.388;11.784;2023-04-24T07:44:00;14.61;81.19
68578;SHT31;61668;45.388;11.784;2023-04-24T07:46:25;14.63;80.62
68578;SHT31;61668;45.388;11.784;2023-04-24T07:48:54;14.65;80.30
68578;SHT31;61668;45.388;11.784;2023-04-24T07:51:20;14.67;79.63
68578;SHT31;61668;45.388;11.784;2023-04-24T07:53:46;14.71;79.34
68578;SHT31;61668;45.388;11.784;2023-04-24T07:56:12;14.75;79.24
68578;SHT31;61668;45.388;11.784;2023-04-24T07:58:38;14.80;78.63
68578;SHT31;61668;45.388;11.784;2023-04-24T08:01:03;14.86;78.40
68578;SHT31;61668;45.388;11.784;2023-04-24T08:03:29;14.91;78.31
68578;SHT31;61668;45.388;11.784;2023-04-24T08:05:55;14.98;77.56
68578;SHT31;61668;45.388;11.784;2023-04-24T08:08:21;15.09;76.92
68578;SHT31;61668;45.388;11.784;2023-04-24T08:10:48;15.23;76.21
68578;SHT31;61668;45.388;11.784;2023-04-24T08:13:14;15.36;75.61
68578;SHT31;61668;45.388;11.784;2023-04-24T08:15:40;15.46;75.21
68578;SHT31;61668;45.388;11.784;2023-04-24T08:18:06;15.57;74.29
68578;SHT31;61668;45.388;11.784;2023-04-24T08:20:32;15.69;73.92
68578;SHT31;61668;45.388;11.784;2023-04-24T08:22:58;15.87;74.01
68578;SHT31;61668;45.388;11.784;2023-04-24T08:25:23;16.09;72.62
68578;SHT31;61668;45.388;11.784;2023-04-24T08:27:50;16.34;71.70
68578;SHT31;61668;45.388;11.784;2023-04-24T08:30:16;16.42;71.44
68578;SHT31;61668;45.388;11.784;2023-04-24T08:32:42;16.42;70.43
68578;SHT31;61668;45.388;11.784;2023-04-24T08:35:08;16.40;70.12
68578;SHT31;61668;45.388;11.784;2023-04-24T08:37:35;16.42;70.33
68578;SHT31;61668;45.388;11.784;2023-04-24T08:40:01;16.56;70.01
68578;SHT31;61668;45.388;11.784;2023-04-24T08:42:35;16.64;69.25
68578;SHT31;61668;45.388;11.784;2023-04-24T08:45:02;16.61;69.11
68578;SHT31;61668;45.388;11.784;2023-04-24T08:47:28;16.59;69.06
68578;SHT31;61668;45.388;11.784;2023-04-24T08:49:55;16.65;69.44
68578;SHT31;61668;45.388;11.784;2023-04-24T08:52:22;16.95;69.79
68578;SHT31;61668;45.388;11.784;2023-04-24T08:54:48;17.40;69.08
68578;SHT31;61668;45.388;11.784;2023-04-24T08:57:14;17.80;68.24
68578;SHT31;61668;45.388;11.784;2023-04-24T08:59:41;18.32;67.51
68578;SHT31;61668;45.388;11.784;2023-04-24T09:02:10;18.89;66.72
68578;SHT31;61668;45.388;11.784;2023-04-24T09:04:36;19.35;65.18
68578;SHT31;61668;45.388;11.784;2023-04-24T09:07:03;19.65;63.88
68578;SHT31;61668;45.388;11.784;2023-04-24T09:09:32;19.78;63.12
68578;SHT31;61668;45.388;11.784;2023-04-24T09:11:58;19.94;62.22
68578;SHT31;61668;45.388;11.784;2023-04-24T09:14:25;19.89;61.11
68578;SHT31;61668;45.388;11.784;2023-04-24T09:16:51;19.86;61.24
68578;SHT31;61668;45.388;11.784;2023-04-24T09:19:17;19.94;60.72
68578;SHT31;61668;45.388;11.784;2023-04-24T09:21:45;19.93;61.26
68578;SHT31;61668;45.388;11.784;2023-04-24T09:24:15;19.79;62.05
68578;SHT31;61668;45.388;11.784;2023-04-24T09:26:48;19.57;61.75
68578;SHT31;61668;45.388;11.784;2023-04-24T09:29:23;19.30;60.88
68578;SHT31;61668;45.388;11.784;2023-04-24T09:31:50;19.06;61.09
68578;SHT31;61668;45.388;11.784;2023-04-24T09:34:21;18.91;61.48
68578;SHT31;61668;45.388;11.784;2023-04-24T09:36:49;18.87;61.71
68578;SHT31;61668;45.388;11.784;2023-04-24T09:39:15;18.86;61.42
68578;SHT31;61668;45.388;11.784;2023-04-24T09:41:49;18.83;60.93
68578;SHT31;61668;45.388;11.784;2023-04-24T09:44:21;18.74;60.54
68578;SHT31;61668;45.388;11.784;2023-04-24T09:46:59;18.65;60.77
68578;SHT31;61668;45.388;11.784;2023-04-24T09:49:29;18.58;60.07
68578;SHT31;61668;45.388;11.784;2023-04-24T09:54:29;19.03;59.38
68578;SHT31;61668;45.388;11.784;2023-04-24T09:56:55;19.32;59.44
68578;SHT31;61668;45.388;11.784;2023-04-24T09:59:22;19.59;58.83
68578;SHT31;61668;45.388;11.784;2023-04-24T10:01:48;19.84;58.91
68578;SHT31;61668;45.388;11.784;2023-04-24T10:04:25;20.05;57.57
68578;SHT31;61668;45.388;11.784;2023-04-24T10:06:54;20.23;56.34
68578;SHT31;61668;45.388;11.784;2023-04-24T10:09:22;20.34;55.70
68578;SHT31;61668;45.388;11.784;2023-04-24T10:11:53;20.44;54.69
68578;SHT31;61668;45.388;11.784;2023-04-24T10:14:21;20.55;54.23
68578;SHT31;61668;45.388;11.784;2023-04-24T10:16:49;20.69;53.42
68578;SHT31;61668;45.388;11.784;2023-04-24T10:19:18;20.84;54.51
68578;SHT31;61668;45.388;11.784;2023-04-24T10:21:45;21.01;55.81
68578;SHT31;61668;45.388;11.784;2023-04-24T10:24:12;21.18;55.67
68578;SHT31;61668;45.388;11.784;2023-04-24T10:26:41;21.28;53.11
68578;SHT31;61668;45.388;11.784;2023-04-24T10:29:08;21.23;51.93
68578;SHT31;61668;45.388;11.784;2023-04-24T10:31:37;21.28;52.90
68578;SHT31;61668;45.388;11.784;2023-04-24T10:34:08;21.43;52.30
68578;SHT31;61668;45.388;11.784;2023-04-24T10:36:35;21.54;50.36
68578;SHT31;61668;45.388;11.784;2023-04-24T10:39:08;21.63;50.05
68578;SHT31;61668;45.388;11.784;2023-04-24T10:41:37;21.79;49.61
68578;SHT31;61668;45.388;11.784;2023-04-24T10:46:35;21.83;47.97
68578;SHT31;61668;45.388;11.784;2023-04-24T10:49:05;21.69;47.29
68578;SHT31;61668;45.388;11.784;2023-04-24T10:57:36;21.51;48.81
68578;SHT31;61668;45.388;11.784;2023-04-24T11:00:30;21.47;48.67
68578;SHT31;61668;45.388;11.784;2023-04-24T11:02:45;21.37;47.80
68578;SHT31;61668;45.388;11.784;2023-04-24T11:05:18;21.31;47.96
68578;SHT31;61668;45.388;11.784;2023-04-24T11:10:58;21.16;47.95
68578;SHT31;61668;45.388;11.784;2023-04-24T11:19:07;21.15;48.32
68578;SHT31;61668;45.388;11.784;2023-04-24T11:21:41;21.16;48.70
68578;SHT31;61668;45.388;11.784;2023-04-24T11:24:21;21.19;48.35
68578;SHT31;61668;45.388;11.784;2023-04-24T11:27:06;21.29;47.75
68578;SHT31;61668;45.388;11.784;2023-04-24T11:29:48;21.36;47.91
68578;SHT31;61668;45.388;11.784;2023-04-24T11:37:46;21.41;48.03
68578;SHT31;61668;45.388;11.784;2023-04-24T11:40:15;21.44;47.53
68578;SHT31;61668;45.388;11.784;2023-04-24T11:42:46;21.55;48.37
68578;SHT31;61668;45.388;11.784;2023-04-24T11:45:17;21.67;48.68
68578;SHT31;61668;45.388;11.784;2023-04-24T11:47:53;21.77;47.83
68578;SHT31;61668;45.388;11.784;2023-04-24T11:50:21;21.85;48.10
68578;SHT31;61668;45.388;11.784;2023-04-24T11:52:49;21.91;47.65
68578;SHT31;61668;45.388;11.784;2023-04-24T11:57:47;21.89;46.82
68578;SHT31;61668;45.388;11.784;2023-04-24T12:00:21;21.89;47.30
68578;SHT31;61668;45.388;11.784;2023-04-24T12:03:02;21.88;47.11
68578;SHT31;61668;45.388;11.784;2023-04-24T12:05:30;21.89;47.36
68578;SHT31;61668;45.388;11.784;2023-04-24T12:07:56;21.91;47.42
68578;SHT31;61668;45.388;11.784;2023-04-24T12:10:23;21.90;47.79
68578;SHT31;61668;45.388;11.784;2023-04-24T12:12:51;21.90;47.37
68578;SHT31;61668;45.388;11.784;2023-04-24T12:15:18;21.88;46.94
68578;SHT31;61668;45.388;11.784;2023-04-24T12:17:45;21.81;47.04
68578;SHT31;61668;45.388;11.784;2023-04-24T12:20:12;21.67;47.22
68578;SHT31;61668;45.388;11.784;2023-04-24T12:22:50;21.63;47.53
68578;SHT31;61668;45.388;11.784;2023-04-24T12:25:25;21.59;47.57
68578;SHT31;61668;45.388;11.784;2023-04-24T12:28:08;21.57;47.80
68578;SHT31;61668;45.388;11.784;2023-04-24T12:30:42;21.55;47.89
68578;SHT31;61668;45.388;11.784;2023-04-24T12:33:20;21.56;48.09
68578;SHT31;61668;45.388;11.784;2023-04-24T12:35:47;21.58;48.01
68578;SHT31;61668;45.388;11.784;2023-04-24T12:38:21;21.60;47.81
68578;SHT31;61668;45.388;11.784;2023-04-24T12:41:08;21.61;47.67
68578;SHT31;61668;45.388;11.784;2023-04-24T12:43:36;21.70;48.11
68578;SHT31;61668;45.388;11.784;2023-04-24T12:46:02;21.83;48.08
68578;SHT31;61668;45.388;11.784;2023-04-24T12:48:30;21.97;48.12
68578;SHT31;61668;45.388;11.784;2023-04-24T12:50:59;22.15;48.08
68578;SHT31;61668;45.388;11.784;2023-04-24T12:53:28;22.33;47.77
68578;SHT31;61668;45.388;11.784;2023-04-24T12:55:57;22.55;47.52
68578;SHT31;61668;45.388;11.784;2023-04-24T12:58:23;22.72;47.25
68578;SHT31;61668;45.388;11.784;2023-04-24T13:00:49;22.80;47.00
68578;SHT31;61668;45.388;11.784;2023-04-24T13:03:15;22.84;47.04
68578;SHT31;61668;45.388;11.784;2023-04-24T13:05:42;22.85;47.22
68578;SHT31;61668;45.388;11.784;2023-04-24T13:08:09;22.92;47.27
68578;SHT31;61668;45.388;11.784;2023-04-24T13:10:35;22.97;46.66
68578;SHT31;61668;45.388;11.784;2023-04-24T13:13:00;23.02;46.37
68578;SHT31;61668;45.388;11.784;2023-04-24T13:15:26;23.13;46.41
68578;SHT31;61668;45.388;11.784;2023-04-24T13:17:52;23.19;46.18
68578;SHT31;61668;45.388;11.784;2023-04-24T13:20:18;23.25;46.43
68578;SHT31;61668;45.388;11.784;2023-04-24T13:22:44;23.33;46.18
68578;SHT31;61668;45.388;11.784;2023-04-24T13:25:10;23.37;45.83
68578;SHT31;61668;45.388;11.784;2023-04-24T13:27:37;23.37;45.96
68578;SHT31;61668;45.388;11.784;2023-04-24T13:30:04;23.42;46.20
68578;SHT31;61668;45.388;11.784;2023-04-24T13:32:32;23.48;45.96
68578;SHT31;61668;45.388;11.784;2023-04-24T13:34:58;23.55;45.80
68578;SHT31;61668;45.388;11.784;2023-04-24T13:37:24;23.58;45.68
68578;SHT31;61668;45.388;11.784;2023-04-24T13:39:50;23.58;45.59
68578;SHT31;61668;45.388;11.784;2023-04-24T13:42:16;23.52;45.48
68578;SHT31;61668;45.388;11.784;2023-04-24T13:44:42;23.45;45.70
68578;SHT31;61668;45.388;11.784;2023-04-24T13:47:07;23.36;45.66
68578;SHT31;61668;45.388;11.784;2023-04-24T13:49:33;23.25;45.87
68578;SHT31;61668;45.388;11.784;2023-04-24T13:51:59;23.15;46.11
68578;SHT31;61668;45.388;11.784;2023-04-24T13:54:24;23.03;46.05
68578;SHT31;61668;45.388;11.784;2023-04-24T13:56:51;22.88;46.28
68578;SHT31;61668;45.388;11.784;2023-04-24T13:59:17;22.78;46.39
68578;SHT31;61668;45.388;11.784;2023-04-24T14:01:45;22.66;46.34
68578;SHT31;61668;45.388;11.784;2023-04-24T14:04:10;22.48;46.37
68578;SHT31;61668;45.388;11.784;2023-04-24T14:06:37;22.32;46.40
68578;SHT31;61668;45.388;11.784;2023-04-24T14:09:02;22.14;46.46
68578;SHT31;61668;45.388;11.784;2023-04-24T14:11:28;21.94;46.72
68578;SHT31;61668;45.388;11.784;2023-04-24T14:13:54;21.79;47.18
68578;SHT31;61668;45.388;11.784;2023-04-24T14:16:23;21.65;47.62
68578;SHT31;61668;45.388;11.784;2023-04-24T14:18:49;21.57;47.78
68578;SHT31;61668;45.388;11.784;2023-04-24T14:21:15;21.52;48.33
68578;SHT31;61668;45.388;11.784;2023-04-24T14:23:41;21.48;48.27
68578;SHT31;61668;45.388;11.784;2023-04-24T14:26:07;21.39;48.44
68578;SHT31;61668;45.388;11.784;2023-04-24T14:28:33;21.35;48.82
68578;SHT31;61668;45.388;11.784;2023-04-24T14:30:59;21.29;48.56
68578;SHT31;61668;45.388;11.784;2023-04-24T14:33:25;21.20;48.73
68578;SHT31;61668;45.388;11.784;2023-04-24T14:35:51;21.16;48.76
68578;SHT31;61668;45.388;11.784;2023-04-24T14:38:17;21.11;48.87
68578;SHT31;61668;45.388;11.784;2023-04-24T14:40:42;21.05;48.78
68578;SHT31;61668;45.388;11.784;2023-04-24T14:43:08;20.98;48.85
68578;SHT31;61668;45.388;11.784;2023-04-24T14:45:34;20.96;49.16
68578;SHT31;61668;45.388;11.784;2023-04-24T14:48:00;20.95;49.50
68578;SHT31;61668;45.388;11.784;2023-04-24T14:50:25;20.92;49.23
68578;SHT31;61668;45.388;11.784;2023-04-24T14:52:54;20.84;49.25
68578;SHT31;61668;45.388;11.784;2023-04-24T14:55:24;20.77;49.46
68578;SHT31;61668;45.388;11.784;2023-04-24T14:57:51;20.71;49.64
68578;SHT31;61668;45.388;11.784;2023-04-24T15:00:17;20.64;49.69
68578;SHT31;61668;45.388;11.784;2023-04-24T15:02:45;20.57;49.48
68578;SHT31;61668;45.388;11.784;2023-04-24T15:05:11;20.52;49.39
68578;SHT31;61668;45.388;11.784;2023-04-24T15:07:37;20.48;49.45
68578;SHT31;61668;45.388;11.784;2023-04-24T15:10:03;20.46;49.59
68578;SHT31;61668;45.388;11.784;2023-04-24T15:12:30;20.41;49.60
68578;SHT31;61668;45.388;11.784;2023-04-24T15:14:57;20.37;50.13
68578;SHT31;61668;45.388;11.784;2023-04-24T15:17:24;20.38;50.42
68578;SHT31;61668;45.388;11.784;2023-04-24T15:19:51;20.40;50.04
68578;SHT31;61668;45.388;11.784;2023-04-24T15:22:17;20.38;50.12
68578;SHT31;61668;45.388;11.784;2023-04-24T15:24:43;20.39;49.90
68578;SHT31;61668;45.388;11.784;2023-04-24T15:27:09;20.38;49.72
68578;SHT31;61668;45.388;11.784;2023-04-24T15:29:36;20.36;49.39
68578;SHT31;61668;45.388;11.784;2023-04-24T15:32:02;20.31;49.28
68578;SHT31;61668;45.388;11.784;2023-04-24T15:34:28;20.28;49.49
68578;SHT31;61668;45.388;11.784;2023-04-24T15:36:54;20.25;49.60
68578;SHT31;61668;45.388;11.784;2023-04-24T15:39:23;20.23;49.78
68578;SHT31;61668;45.388;11.784;2023-04-24T15:41:52;20.18;49.58